sensor_id;sensor_type;location;lat;lon;timestamp;P1;durP1;ratioP1;P2;durP2;ratioP2
39740;SDS011;25426;53.478;10.190;2022-11-12T00:01:15;21.35;;;13.73;;
39740;SDS011;25426;53.478;10.190;2022-11-12T00:04:12;17.70;;;12.40;;
39740;SDS011;25426;53.478;10.190;2022-11-12T00:07:27;21.20;;;11.63;;
39740;SDS011;25426;53.478;10.190;2022-11-12T00:10:16;13.68;;;10.50;;
39740;SDS011;25426;53.478;10.190;2022-11-12T00:13:09;17.77;;;11.82;;
39740;SDS011;25426;53.478;10.190;2022-11-12T00:15:59;16.10;;;11.60;;
39740;SDS011;25426;53.478;10.190;2022-11-12T00:18:48;18.77;;;14.43;;
39740;SDS011;25426;53.478;10.190;2022-11-12T00:21:38;19.30;;;12.87;;
39740;SDS011;25426;53.478;10.190;2022-11-12T00:24:27;18.17;;;12.77;;
39740;SDS011;25426;53.478;10.190;2022-11-12T00:27:17;14.05;;;10.63;;
39740;SDS011;25426;53.478;10.190;2022-11-12T00:30:07;21.93;;;13.07;;
39740;SDS011;25426;53.478;10.190;2022-11-12T00:33:01;18.77;;;11.98;;
39740;SDS011;25426;53.478;10.190;2022-11-12T00:35:52;20.33;;;13.00;;
39740;SDS011;25426;53.478;10.190;2022-11-12T00:38:41;20.00;;;14.15;;
39740;SDS011;25426;53.478;10.190;2022-11-12T00:41:31;21.63;;;13.60;;
39740;SDS011;25426;53.478;10.190;2022-11-12T00:44:20;19.75;;;13.65;;
39740;SDS011;25426;53.478;10.190;2022-11-12T00:47:10;26.15;;;15.45;;
39740;SDS011;25426;53.478;10.190;2022-11-12T00:50:00;21.65;;;13.75;;
39740;SDS011;25426;53.478;10.190;2022-11-12T00:52:53;25.63;;;15.00;;
39740;SDS011;25426;53.478;10.190;2022-11-12T00:55:42;27.20;;;15.63;;
39740;SDS011;25426;53.478;10.190;2022-11-12T00:58:33;20.77;;;14.60;;
39740;SDS011;25426;53.478;10.190;2022-11-12T01:01:24;22.98;;;15.63;;
39740;SDS011;25426;53.478;10.190;2022-11-12T01:04:14;25.10;;;15.32;;
39740;SDS011;25426;53.478;10.190;2022-11-12T01:07:03;20.95;;;14.77;;
39740;SDS011;25426;53.478;10.190;2022-11-12T01:09:53;19.70;;;15.00;;
39740;SDS011;25426;53.478;10.190;2022-11-12T01:12:43;19.85;;;13.80;;
39740;SDS011;25426;53.478;10.190;2022-11-12T01:15:32;21.38;;;14.40;;
39740;SDS011;25426;53.478;10.190;2022-11-12T01:18:22;23.60;;;14.35;;
39740;SDS011;25426;53.478;10.190;2022-11-12T01:21:14;21.40;;;14.20;;
39740;SDS011;25426;53.478;10.190;2022-11-12T01:24:04;19.05;;;12.98;;
39740;SDS011;25426;53.478;10.190;2022-11-12T01:26:54;22.08;;;14.98;;
39740;SDS011;25426;53.478;10.190;2022-11-12T01:29:43;19.55;;;14.70;;
39740;SDS011;25426;53.478;10.190;2022-11-12T01:32:33;21.52;;;13.18;;
39740;SDS011;25426;53.478;10.190;2022-11-12T01:35:25;22.52;;;15.23;;
39740;SDS011;25426;53.478;10.190;2022-11-12T01:38:14;21.83;;;14.52;;
39740;SDS011;25426;53.478;10.190;2022-11-12T01:41:04;24.98;;;14.55;;
39740;SDS011;25426;53.478;10.190;2022-11-12T01:47:22;19.48;;;14.13;;
39740;SDS011;25426;53.478;10.190;2022-11-12T01:50:35;20.58;;;14.35;;
39740;SDS011;25426;53.478;10.190;2022-11-12T01:53:27;17.80;;;13.15;;
39740;SDS011;25426;53.478;10.190;2022-11-12T01:56:20;17.27;;;12.70;;
39740;SDS011;25426;53.478;10.190;2022-11-12T01:59:13;19.75;;;13.93;;
39740;SDS011;25426;53.478;10.190;2022-11-12T02:02:17;16.38;;;13.05;;
39740;SDS011;25426;53.478;10.190;2022-11-12T02:05:07;29.33;;;13.20;;
39740;SDS011;25426;53.478;10.190;2022-11-12T02:07:59;17.65;;;12.75;;
39740;SDS011;25426;53.478;10.190;2022-11-12T02:10:49;17.45;;;12.90;;
39740;SDS011;25426;53.478;10.190;2022-11-12T02:13:39;21.80;;;13.80;;
39740;SDS011;25426;53.478;10.190;2022-11-12T02:16:49;19.60;;;13.05;;
39740;SDS011;25426;53.478;10.190;2022-11-12T02:19:38;23.95;;;13.73;;
39740;SDS011;25426;53.478;10.190;2022-11-12T02:22:27;18.17;;;13.27;;
39740;SDS011;25426;53.478;10.190;2022-11-12T02:25:18;21.88;;;14.18;;
39740;SDS011;25426;53.478;10.190;2022-11-12T02:28:11;19.95;;;13.38;;
39740;SDS011;25426;53.478;10.190;2022-11-12T02:31:00;19.85;;;14.35;;
39740;SDS011;25426;53.478;10.190;2022-11-12T02:33:50;21.20;;;13.65;;
39740;SDS011;25426;53.478;10.190;2022-11-12T02:36:39;16.98;;;12.45;;
39740;SDS011;25426;53.478;10.190;2022-11-12T02:39:32;17.38;;;13.77;;
39740;SDS011;25426;53.478;10.190;2022-11-12T02:42:21;16.02;;;12.23;;
39740;SDS011;25426;53.478;10.190;2022-11-12T02:45:11;18.88;;;13.90;;
39740;SDS011;25426;53.478;10.190;2022-11-12T02:48:00;17.75;;;13.07;;
39740;SDS011;25426;53.478;10.190;2022-11-12T02:50:50;16.50;;;12.85;;
39740;SDS011;25426;53.478;10.190;2022-11-12T02:53:40;17.80;;;13.35;;
39740;SDS011;25426;53.478;10.190;2022-11-12T02:56:29;29.02;;;14.02;;
39740;SDS011;25426;53.478;10.190;2022-11-12T02:59:19;18.67;;;12.98;;
39740;SDS011;25426;53.478;10.190;2022-11-12T03:02:08;18.92;;;13.07;;
39740;SDS011;25426;53.478;10.190;2022-11-12T03:04:58;16.83;;;12.30;;
39740;SDS011;25426;53.478;10.190;2022-11-12T03:07:47;17.65;;;13.52;;
39740;SDS011;25426;53.478;10.190;2022-11-12T03:10:37;18.83;;;13.35;;
39740;SDS011;25426;53.478;10.190;2022-11-12T03:13:27;18.58;;;13.80;;
39740;SDS011;25426;53.478;10.190;2022-11-12T03:16:17;17.35;;;13.30;;
39740;SDS011;25426;53.478;10.190;2022-11-12T03:19:06;19.58;;;14.05;;
39740;SDS011;25426;53.478;10.190;2022-11-12T03:21:56;17.13;;;12.43;;
39740;SDS011;25426;53.478;10.190;2022-11-12T03:24:46;16.13;;;12.93;;
39740;SDS011;25426;53.478;10.190;2022-11-12T03:27:35;18.17;;;12.77;;
39740;SDS011;25426;53.478;10.190;2022-11-12T03:30:25;16.08;;;11.70;;
39740;SDS011;25426;53.478;10.190;2022-11-12T03:33:18;17.10;;;12.65;;
39740;SDS011;25426;53.478;10.190;2022-11-12T03:36:07;16.15;;;11.98;;
39740;SDS011;25426;53.478;10.190;2022-11-12T03:38:56;16.85;;;12.50;;
39740;SDS011;25426;53.478;10.190;2022-11-12T03:41:46;15.50;;;12.43;;
39740;SDS011;25426;53.478;10.190;2022-11-12T03:44:36;14.30;;;12.77;;
39740;SDS011;25426;53.478;10.190;2022-11-12T03:47:26;19.27;;;11.80;;
39740;SDS011;25426;53.478;10.190;2022-11-12T03:50:16;17.50;;;12.70;;
39740;SDS011;25426;53.478;10.190;2022-11-12T03:53:07;19.77;;;11.93;;
39740;SDS011;25426;53.478;10.190;2022-11-12T03:55:58;14.02;;;11.85;;
39740;SDS011;25426;53.478;10.190;2022-11-12T03:58:47;12.57;;;10.63;;
39740;SDS011;25426;53.478;10.190;2022-11-12T04:01:37;14.60;;;10.07;;
39740;SDS011;25426;53.478;10.190;2022-11-12T04:04:27;14.10;;;9.40;;
39740;SDS011;25426;53.478;10.190;2022-11-12T04:07:36;14.32;;;10.00;;
39740;SDS011;25426;53.478;10.190;2022-11-12T04:10:45;13.60;;;9.80;;
39740;SDS011;25426;53.478;10.190;2022-11-12T04:13:35;15.70;;;10.60;;
39740;SDS011;25426;53.478;10.190;2022-11-12T04:16:26;14.88;;;10.48;;
39740;SDS011;25426;53.478;10.190;2022-11-12T04:19:34;14.13;;;9.88;;
39740;SDS011;25426;53.478;10.190;2022-11-12T04:22:42;15.00;;;9.30;;
39740;SDS011;25426;53.478;10.190;2022-11-12T04:25:32;15.30;;;10.20;;
39740;SDS011;25426;53.478;10.190;2022-11-12T04:28:40;13.13;;;9.43;;
39740;SDS011;25426;53.478;10.190;2022-11-12T04:31:52;13.73;;;9.30;;
39740;SDS011;25426;53.478;10.190;2022-11-12T04:34:44;12.77;;;9.55;;
39740;SDS011;25426;53.478;10.190;2022-11-12T04:37:35;12.05;;;8.93;;
39740;SDS011;25426;53.478;10.190;2022-11-12T04:40:34;12.63;;;9.57;;
39740;SDS011;25426;53.478;10.190;2022-11-12T04:43:43;14.50;;;9.07;;
39740;SDS011;25426;53.478;10.190;2022-11-12T04:46:51;17.52;;;9.70;;
39740;SDS011;25426;53.478;10.190;2022-11-12T04:49:45;12.48;;;9.35;;
39740;SDS011;25426;53.478;10.190;2022-11-12T04:52:35;15.70;;;10.48;;
39740;SDS011;25426;53.478;10.190;2022-11-12T04:55:24;12.25;;;8.90;;
39740;SDS011;25426;53.478;10.190;2022-11-12T04:58:14;13.10;;;8.93;;
39740;SDS011;25426;53.478;10.190;2022-11-12T05:01:03;19.05;;;10.60;;
39740;SDS011;25426;53.478;10.190;2022-11-12T05:03:53;13.63;;;9.65;;
39740;SDS011;25426;53.478;10.190;2022-11-12T05:06:43;17.10;;;9.65;;
39740;SDS011;25426;53.478;10.190;2022-11-12T05:09:41;16.60;;;10.68;;
39740;SDS011;25426;53.478;10.190;2022-11-12T05:12:31;13.48;;;9.45;;
39740;SDS011;25426;53.478;10.190;2022-11-12T05:15:21;15.40;;;10.38;;
39740;SDS011;25426;53.478;10.190;2022-11-12T05:18:11;14.70;;;9.82;;
39740;SDS011;25426;53.478;10.190;2022-11-12T05:21:01;14.57;;;10.05;;
39740;SDS011;25426;53.478;10.190;2022-11-12T05:24:10;17.35;;;9.85;;
39740;SDS011;25426;53.478;10.190;2022-11-12T05:27:00;16.42;;;9.85;;
39740;SDS011;25426;53.478;10.190;2022-11-12T05:29:50;10.55;;;8.57;;
39740;SDS011;25426;53.478;10.190;2022-11-12T05:32:40;14.88;;;10.05;;
39740;SDS011;25426;53.478;10.190;2022-11-12T05:35:29;15.60;;;9.73;;
39740;SDS011;25426;53.478;10.190;2022-11-12T05:38:19;12.30;;;9.15;;
39740;SDS011;25426;53.478;10.190;2022-11-12T08:46:08;27.35;;;18.52;;
39740;SDS011;25426;53.478;10.190;2022-11-12T08:48:58;28.57;;;19.03;;
39740;SDS011;25426;53.478;10.190;2022-11-12T08:51:47;28.93;;;19.47;;
39740;SDS011;25426;53.478;10.190;2022-11-12T08:54:37;28.15;;;22.15;;
39740;SDS011;25426;53.478;10.190;2022-11-12T08:57:26;54.75;;;24.05;;
39740;SDS011;25426;53.478;10.190;2022-11-12T09:00:16;22.98;;;16.40;;
39740;SDS011;25426;53.478;10.190;2022-11-12T09:03:06;20.27;;;15.75;;
39740;SDS011;25426;53.478;10.190;2022-11-12T09:06:03;15.10;;;13.10;;
39740;SDS011;25426;53.478;10.190;2022-11-12T09:08:53;20.83;;;12.35;;
39740;SDS011;25426;53.478;10.190;2022-11-12T09:11:42;11.52;;;10.00;;
39740;SDS011;25426;53.478;10.190;2022-11-12T09:14:32;10.50;;;9.35;;
39740;SDS011;25426;53.478;10.190;2022-11-12T09:17:21;10.70;;;9.25;;
39740;SDS011;25426;53.478;10.190;2022-11-12T09:20:11;11.82;;;9.50;;
39740;SDS011;25426;53.478;10.190;2022-11-12T09:23:02;10.43;;;8.77;;
39740;SDS011;25426;53.478;10.190;2022-11-12T09:25:58;10.90;;;9.25;;
39740;SDS011;25426;53.478;10.190;2022-11-12T09:28:48;12.40;;;8.80;;
39740;SDS011;25426;53.478;10.190;2022-11-12T09:31:39;12.30;;;8.70;;
39740;SDS011;25426;53.478;10.190;2022-11-12T09:34:29;9.60;;;7.65;;
39740;SDS011;25426;53.478;10.190;2022-11-12T09:37:19;9.20;;;8.30;;
39740;SDS011;25426;53.478;10.190;2022-11-12T09:40:09;8.85;;;7.80;;
39740;SDS011;25426;53.478;10.190;2022-11-12T09:43:10;9.38;;;8.20;;
39740;SDS011;25426;53.478;10.190;2022-11-12T09:46:17;13.98;;;8.55;;
39740;SDS011;25426;53.478;10.190;2022-11-12T09:49:42;11.23;;;8.60;;
39740;SDS011;25426;53.478;10.190;2022-11-12T09:52:39;8.93;;;8.02;;
39740;SDS011;25426;53.478;10.190;2022-11-12T09:56:05;11.73;;;8.63;;
39740;SDS011;25426;53.478;10.190;2022-11-12T09:58:47;9.45;;;8.05;;
39740;SDS011;25426;53.478;10.190;2022-11-12T10:05:09;8.80;;;7.90;;
39740;SDS011;25426;53.478;10.190;2022-11-12T10:18:49;8.98;;;7.50;;
39740;SDS011;25426;53.478;10.190;2022-11-12T10:25:50;8.38;;;7.30;;
39740;SDS011;25426;53.478;10.190;2022-11-12T10:32:01;11.23;;;8.02;;
39740;SDS011;25426;53.478;10.190;2022-11-12T10:34:51;9.32;;;7.97;;
39740;SDS011;25426;53.478;10.190;2022-11-12T10:37:44;10.23;;;7.85;;
39740;SDS011;25426;53.478;10.190;2022-11-12T10:40:48;8.35;;;6.90;;
39740;SDS011;25426;53.478;10.190;2022-11-12T10:43:37;8.70;;;7.82;;
39740;SDS011;25426;53.478;10.190;2022-11-12T10:47:22;11.38;;;7.35;;
39740;SDS011;25426;53.478;10.190;2022-11-12T10:50:24;24.60;;;7.40;;
39740;SDS011;25426;53.478;10.190;2022-11-12T10:53:28;8.70;;;6.95;;
39740;SDS011;25426;53.478;10.190;2022-11-12T10:56:29;8.43;;;6.90;;
39740;SDS011;25426;53.478;10.190;2022-11-12T10:59:21;9.18;;;6.45;;
39740;SDS011;25426;53.478;10.190;2022-11-12T11:02:16;9.35;;;8.02;;
39740;SDS011;25426;53.478;10.190;2022-11-12T11:05:24;10.90;;;8.18;;
39740;SDS011;25426;53.478;10.190;2022-11-12T11:08:42;8.55;;;7.35;;
39740;SDS011;25426;53.478;10.190;2022-11-12T11:11:35;11.18;;;7.82;;
39740;SDS011;25426;53.478;10.190;2022-11-12T11:14:26;10.73;;;8.40;;
39740;SDS011;25426;53.478;10.190;2022-11-12T11:17:24;10.27;;;7.93;;
39740;SDS011;25426;53.478;10.190;2022-11-12T11:23:44;10.07;;;7.78;;
39740;SDS011;25426;53.478;10.190;2022-11-12T11:27:28;13.65;;;8.40;;
39740;SDS011;25426;53.478;10.190;2022-11-12T11:31:14;9.98;;;7.57;;
39740;SDS011;25426;53.478;10.190;2022-11-12T11:34:58;10.95;;;7.93;;
39740;SDS011;25426;53.478;10.190;2022-11-12T11:41:35;9.57;;;7.95;;
39740;SDS011;25426;53.478;10.190;2022-11-12T11:45:17;15.40;;;8.80;;
39740;SDS011;25426;53.478;10.190;2022-11-12T11:51:55;14.32;;;8.88;;
39740;SDS011;25426;53.478;10.190;2022-11-12T11:56:17;10.30;;;8.50;;
39740;SDS011;25426;53.478;10.190;2022-11-12T12:09:12;12.05;;;9.52;;
39740;SDS011;25426;53.478;10.190;2022-11-12T12:16:18;19.10;;;9.73;;
39740;SDS011;25426;53.478;10.190;2022-11-12T12:23:24;14.63;;;9.90;;
39740;SDS011;25426;53.478;10.190;2022-11-12T12:26:52;10.73;;;8.93;;
39740;SDS011;25426;53.478;10.190;2022-11-12T12:30:13;12.80;;;9.93;;
39740;SDS011;25426;53.478;10.190;2022-11-12T12:36:41;10.75;;;8.90;;
39740;SDS011;25426;53.478;10.190;2022-11-12T12:39:43;11.52;;;9.48;;
39740;SDS011;25426;53.478;10.190;2022-11-12T12:43:17;12.27;;;10.10;;
39740;SDS011;25426;53.478;10.190;2022-11-12T12:46:48;15.05;;;10.65;;
39740;SDS011;25426;53.478;10.190;2022-11-12T12:49:45;17.23;;;13.55;;
39740;SDS011;25426;53.478;10.190;2022-11-12T12:59:21;12.20;;;10.20;;
39740;SDS011;25426;53.478;10.190;2022-11-12T13:02:17;13.50;;;9.55;;
39740;SDS011;25426;53.478;10.190;2022-11-12T13:05:21;13.00;;;9.43;;
39740;SDS011;25426;53.478;10.190;2022-11-12T13:08:22;12.77;;;10.25;;
39740;SDS011;25426;53.478;10.190;2022-11-12T13:11:40;11.63;;;9.40;;
39740;SDS011;25426;53.478;10.190;2022-11-12T13:21:27;13.50;;;10.50;;
39740;SDS011;25426;53.478;10.190;2022-11-12T13:24:17;12.68;;;10.10;;
39740;SDS011;25426;53.478;10.190;2022-11-12T13:33:39;16.02;;;11.00;;
39740;SDS011;25426;53.478;10.190;2022-11-12T13:36:29;12.68;;;10.35;;
39740;SDS011;25426;53.478;10.190;2022-11-12T13:39:19;14.13;;;10.63;;
39740;SDS011;25426;53.478;10.190;2022-11-12T13:42:12;10.63;;;8.90;;
39740;SDS011;25426;53.478;10.190;2022-11-12T13:45:24;11.80;;;9.40;;
39740;SDS011;25426;53.478;10.190;2022-11-12T13:48:16;31.73;;;20.75;;
39740;SDS011;25426;53.478;10.190;2022-11-12T13:51:25;20.73;;;14.57;;
39740;SDS011;25426;53.478;10.190;2022-11-12T13:54:32;36.85;;;20.95;;
39740;SDS011;25426;53.478;10.190;2022-11-12T13:57:26;30.92;;;21.77;;
39740;SDS011;25426;53.478;10.190;2022-11-12T14:00:26;18.95;;;14.82;;
39740;SDS011;25426;53.478;10.190;2022-11-12T14:03:17;21.95;;;16.85;;
39740;SDS011;25426;53.478;10.190;2022-11-12T14:06:18;23.90;;;16.30;;
39740;SDS011;25426;53.478;10.190;2022-11-12T14:19:44;17.83;;;13.15;;
39740;SDS011;25426;53.478;10.190;2022-11-12T14:23:12;16.63;;;12.55;;
39740;SDS011;25426;53.478;10.190;2022-11-12T14:26:08;15.05;;;11.75;;
39740;SDS011;25426;53.478;10.190;2022-11-12T14:29:00;14.60;;;12.63;;
39740;SDS011;25426;53.478;10.190;2022-11-12T14:31:58;18.08;;;11.80;;
39740;SDS011;25426;53.478;10.190;2022-11-12T14:34:50;17.63;;;11.70;;
39740;SDS011;25426;53.478;10.190;2022-11-12T14:37:47;16.05;;;11.65;;
39740;SDS011;25426;53.478;10.190;2022-11-12T14:40:57;14.63;;;10.52;;
39740;SDS011;25426;53.478;10.190;2022-11-12T14:43:56;12.35;;;10.48;;
39740;SDS011;25426;53.478;10.190;2022-11-12T14:46:54;16.60;;;10.80;;
39740;SDS011;25426;53.478;10.190;2022-11-12T14:49:45;15.90;;;10.50;;
39740;SDS011;25426;53.478;10.190;2022-11-12T14:52:39;15.88;;;10.63;;
39740;SDS011;25426;53.478;10.190;2022-11-12T14:55:35;13.88;;;9.73;;
39740;SDS011;25426;53.478;10.190;2022-11-12T14:58:25;13.05;;;10.85;;
39740;SDS011;25426;53.478;10.190;2022-11-12T15:01:20;16.88;;;11.38;;
39740;SDS011;25426;53.478;10.190;2022-11-12T15:04:20;13.85;;;10.30;;
39740;SDS011;25426;53.478;10.190;2022-11-12T15:07:27;11.63;;;8.93;;
39740;SDS011;25426;53.478;10.190;2022-11-12T15:13:27;13.70;;;10.93;;
39740;SDS011;25426;53.478;10.190;2022-11-12T15:16:28;15.73;;;11.10;;
39740;SDS011;25426;53.478;10.190;2022-11-12T15:19:23;11.43;;;9.05;;
39740;SDS011;25426;53.478;10.190;2022-11-12T15:22:17;14.38;;;10.07;;
39740;SDS011;25426;53.478;10.190;2022-11-12T15:25:20;13.35;;;9.57;;
39740;SDS011;25426;53.478;10.190;2022-11-12T15:28:21;13.43;;;9.73;;
39740;SDS011;25426;53.478;10.190;2022-11-12T15:31:17;12.00;;;9.70;;
39740;SDS011;25426;53.478;10.190;2022-11-12T15:40:11;14.32;;;10.07;;
39740;SDS011;25426;53.478;10.190;2022-11-12T15:43:11;19.25;;;11.00;;
39740;SDS011;25426;53.478;10.190;2022-11-12T15:46:10;14.70;;;11.48;;
39740;SDS011;25426;53.478;10.190;2022-11-12T15:49:10;20.63;;;12.80;;
39740;SDS011;25426;53.478;10.190;2022-11-12T15:52:00;17.55;;;13.43;;
39740;SDS011;25426;53.478;10.190;2022-11-12T15:54:50;18.73;;;13.30;;
39740;SDS011;25426;53.478;10.190;2022-11-12T15:57:40;16.23;;;12.98;;
39740;SDS011;25426;53.478;10.190;2022-11-12T16:00:38;18.63;;;15.48;;
39740;SDS011;25426;53.478;10.190;2022-11-12T16:03:30;25.52;;;17.75;;
39740;SDS011;25426;53.478;10.190;2022-11-12T16:06:25;23.40;;;16.60;;
39740;SDS011;25426;53.478;10.190;2022-11-12T16:09:14;17.40;;;13.63;;
39740;SDS011;25426;53.478;10.190;2022-11-12T16:12:08;21.92;;;15.45;;
39740;SDS011;25426;53.478;10.190;2022-11-12T16:15:00;23.08;;;17.45;;
39740;SDS011;25426;53.478;10.190;2022-11-12T16:17:50;25.48;;;18.02;;
39740;SDS011;25426;53.478;10.190;2022-11-12T16:20:43;25.20;;;18.17;;
39740;SDS011;25426;53.478;10.190;2022-11-12T16:23:38;23.50;;;16.48;;
39740;SDS011;25426;53.478;10.190;2022-11-12T16:26:37;22.20;;;15.57;;
39740;SDS011;25426;53.478;10.190;2022-11-12T16:29:27;19.23;;;15.70;;
39740;SDS011;25426;53.478;10.190;2022-11-12T16:32:19;23.52;;;18.45;;
39740;SDS011;25426;53.478;10.190;2022-11-12T16:35:17;25.13;;;18.08;;
39740;SDS011;25426;53.478;10.190;2022-11-12T16:38:17;22.15;;;17.38;;
39740;SDS011;25426;53.478;10.190;2022-11-12T16:41:08;27.10;;;18.83;;
39740;SDS011;25426;53.478;10.190;2022-11-12T16:44:07;23.88;;;15.77;;
39740;SDS011;25426;53.478;10.190;2022-11-12T16:47:12;23.25;;;15.48;;
39740;SDS011;25426;53.478;10.190;2022-11-12T16:50:09;18.30;;;15.15;;
39740;SDS011;25426;53.478;10.190;2022-11-12T16:53:15;22.70;;;15.82;;
39740;SDS011;25426;53.478;10.190;2022-11-12T16:56:07;22.33;;;15.57;;
39740;SDS011;25426;53.478;10.190;2022-11-12T16:59:10;17.98;;;14.30;;
39740;SDS011;25426;53.478;10.190;2022-11-12T17:02:02;17.58;;;14.30;;
39740;SDS011;25426;53.478;10.190;2022-11-12T17:04:51;20.80;;;14.30;;
39740;SDS011;25426;53.478;10.190;2022-11-12T17:07:44;16.85;;;13.38;;
39740;SDS011;25426;53.478;10.190;2022-11-12T17:10:37;16.02;;;12.90;;
39740;SDS011;25426;53.478;10.190;2022-11-12T17:13:26;15.00;;;12.13;;
39740;SDS011;25426;53.478;10.190;2022-11-12T17:16:16;16.63;;;12.80;;
39740;SDS011;25426;53.478;10.190;2022-11-12T17:19:08;24.23;;;16.80;;
39740;SDS011;25426;53.478;10.190;2022-11-12T17:22:03;20.27;;;15.80;;
39740;SDS011;25426;53.478;10.190;2022-11-12T17:24:53;22.35;;;16.73;;
39740;SDS011;25426;53.478;10.190;2022-11-12T17:27:42;21.17;;;15.55;;
39740;SDS011;25426;53.478;10.190;2022-11-12T17:30:32;27.17;;;19.90;;
39740;SDS011;25426;53.478;10.190;2022-11-12T17:33:21;18.05;;;14.80;;
39740;SDS011;25426;53.478;10.190;2022-11-12T17:36:12;19.85;;;15.13;;
39740;SDS011;25426;53.478;10.190;2022-11-12T17:39:05;17.02;;;14.82;;
39740;SDS011;25426;53.478;10.190;2022-11-12T17:41:58;18.05;;;13.82;;
39740;SDS011;25426;53.478;10.190;2022-11-12T17:44:47;19.20;;;15.07;;
39740;SDS011;25426;53.478;10.190;2022-11-12T17:47:37;18.83;;;15.40;;
39740;SDS011;25426;53.478;10.190;2022-11-12T17:50:26;24.52;;;18.75;;
39740;SDS011;25426;53.478;10.190;2022-11-12T17:53:16;21.70;;;15.32;;
39740;SDS011;25426;53.478;10.190;2022-11-12T17:56:16;23.20;;;14.95;;
39740;SDS011;25426;53.478;10.190;2022-11-12T17:59:10;20.08;;;15.52;;
39740;SDS011;25426;53.478;10.190;2022-11-12T18:02:02;20.88;;;14.93;;
39740;SDS011;25426;53.478;10.190;2022-11-12T18:04:59;19.13;;;14.75;;
39740;SDS011;25426;53.478;10.190;2022-11-12T18:07:48;17.90;;;14.57;;
39740;SDS011;25426;53.478;10.190;2022-11-12T18:10:49;21.42;;;14.60;;
39740;SDS011;25426;53.478;10.190;2022-11-12T18:13:42;19.15;;;14.15;;
39740;SDS011;25426;53.478;10.190;2022-11-12T18:16:34;21.02;;;15.07;;
39740;SDS011;25426;53.478;10.190;2022-11-12T18:19:24;21.15;;;15.85;;
39740;SDS011;25426;53.478;10.190;2022-11-12T18:22:13;18.55;;;14.20;;
39740;SDS011;25426;53.478;10.190;2022-11-12T18:25:05;19.20;;;13.75;;
39740;SDS011;25426;53.478;10.190;2022-11-12T18:27:55;23.23;;;14.35;;
39740;SDS011;25426;53.478;10.190;2022-11-12T18:30:57;21.05;;;15.30;;
39740;SDS011;25426;53.478;10.190;2022-11-12T18:33:55;18.33;;;15.05;;
39740;SDS011;25426;53.478;10.190;2022-11-12T18:36:59;19.52;;;14.00;;
39740;SDS011;25426;53.478;10.190;2022-11-12T18:39:49;18.58;;;14.32;;
39740;SDS011;25426;53.478;10.190;2022-11-12T18:42:39;22.33;;;15.18;;
39740;SDS011;25426;53.478;10.190;2022-11-12T18:45:28;19.70;;;14.18;;
39740;SDS011;25426;53.478;10.190;2022-11-12T18:48:18;20.83;;;14.60;;
39740;SDS011;25426;53.478;10.190;2022-11-12T18:51:08;26.30;;;16.75;;
39740;SDS011;25426;53.478;10.190;2022-11-12T18:54:06;21.33;;;17.15;;
39740;SDS011;25426;53.478;10.190;2022-11-12T18:56:56;23.08;;;17.83;;
39740;SDS011;25426;53.478;10.190;2022-11-12T18:59:49;21.25;;;16.13;;
39740;SDS011;25426;53.478;10.190;2022-11-12T19:02:46;22.55;;;16.13;;
39740;SDS011;25426;53.478;10.190;2022-11-12T19:05:48;20.63;;;15.77;;
39740;SDS011;25426;53.478;10.190;2022-11-12T19:09:14;21.55;;;14.88;;
39740;SDS011;25426;53.478;10.190;2022-11-12T19:12:04;21.73;;;15.68;;
39740;SDS011;25426;53.478;10.190;2022-11-12T19:14:54;22.42;;;15.88;;
39740;SDS011;25426;53.478;10.190;2022-11-12T19:17:46;21.65;;;15.45;;
39740;SDS011;25426;53.478;10.190;2022-11-12T19:20:58;22.25;;;15.65;;
39740;SDS011;25426;53.478;10.190;2022-11-12T19:24:06;23.20;;;15.13;;
39740;SDS011;25426;53.478;10.190;2022-11-12T19:26:59;21.27;;;16.70;;
39740;SDS011;25426;53.478;10.190;2022-11-12T19:30:17;20.88;;;14.93;;
39740;SDS011;25426;53.478;10.190;2022-11-12T19:33:06;24.15;;;16.80;;
39740;SDS011;25426;53.478;10.190;2022-11-12T19:36:12;22.83;;;15.88;;
39740;SDS011;25426;53.478;10.190;2022-11-12T19:39:14;24.00;;;16.40;;
39740;SDS011;25426;53.478;10.190;2022-11-12T19:42:06;21.85;;;16.25;;
39740;SDS011;25426;53.478;10.190;2022-11-12T19:44:56;23.83;;;16.17;;
39740;SDS011;25426;53.478;10.190;2022-11-12T19:47:46;21.92;;;15.90;;
39740;SDS011;25426;53.478;10.190;2022-11-12T19:50:36;22.65;;;16.40;;
39740;SDS011;25426;53.478;10.190;2022-11-12T19:53:29;24.85;;;17.85;;
39740;SDS011;25426;53.478;10.190;2022-11-12T19:56:31;24.20;;;15.77;;
39740;SDS011;25426;53.478;10.190;2022-11-12T19:59:21;23.83;;;17.00;;
39740;SDS011;25426;53.478;10.190;2022-11-12T20:02:11;18.55;;;15.55;;
39740;SDS011;25426;53.478;10.190;2022-11-12T20:05:02;23.52;;;15.63;;
39740;SDS011;25426;53.478;10.190;2022-11-12T20:07:52;24.60;;;15.07;;
39740;SDS011;25426;53.478;10.190;2022-11-12T20:10:47;22.25;;;16.42;;
39740;SDS011;25426;53.478;10.190;2022-11-12T20:13:37;24.83;;;16.60;;
39740;SDS011;25426;53.478;10.190;2022-11-12T20:16:26;24.60;;;17.02;;
39740;SDS011;25426;53.478;10.190;2022-11-12T20:19:16;25.23;;;16.52;;
39740;SDS011;25426;53.478;10.190;2022-11-12T20:22:06;23.92;;;15.88;;
39740;SDS011;25426;53.478;10.190;2022-11-12T20:24:55;22.95;;;16.15;;
39740;SDS011;25426;53.478;10.190;2022-11-12T20:27:45;25.67;;;16.88;;
39740;SDS011;25426;53.478;10.190;2022-11-12T20:30:35;26.92;;;17.75;;
39740;SDS011;25426;53.478;10.190;2022-11-12T20:33:25;22.85;;;16.73;;
39740;SDS011;25426;53.478;10.190;2022-11-12T20:36:16;21.08;;;16.70;;
39740;SDS011;25426;53.478;10.190;2022-11-12T20:39:08;25.90;;;17.02;;
39740;SDS011;25426;53.478;10.190;2022-11-12T20:41:57;22.77;;;15.70;;
39740;SDS011;25426;53.478;10.190;2022-11-12T20:44:48;25.92;;;16.23;;
39740;SDS011;25426;53.478;10.190;2022-11-12T20:47:37;27.90;;;15.95;;
39740;SDS011;25426;53.478;10.190;2022-11-12T20:50:27;24.35;;;16.42;;
39740;SDS011;25426;53.478;10.190;2022-11-12T20:53:17;23.20;;;16.55;;
39740;SDS011;25426;53.478;10.190;2022-11-12T20:56:07;24.73;;;18.15;;
39740;SDS011;25426;53.478;10.190;2022-11-12T20:59:02;23.33;;;16.52;;
39740;SDS011;25426;53.478;10.190;2022-11-12T21:01:52;23.63;;;16.00;;
39740;SDS011;25426;53.478;10.190;2022-11-12T21:04:48;22.65;;;16.48;;
39740;SDS011;25426;53.478;10.190;2022-11-12T21:07:42;24.17;;;16.50;;
39740;SDS011;25426;53.478;10.190;2022-11-12T21:10:32;22.90;;;15.73;;
39740;SDS011;25426;53.478;10.190;2022-11-12T21:13:22;21.63;;;16.45;;
39740;SDS011;25426;53.478;10.190;2022-11-12T21:16:12;27.23;;;17.52;;
39740;SDS011;25426;53.478;10.190;2022-11-12T21:19:02;29.05;;;18.80;;
39740;SDS011;25426;53.478;10.190;2022-11-12T21:21:53;26.13;;;18.20;;
39740;SDS011;25426;53.478;10.190;2022-11-12T21:24:43;32.15;;;18.02;;
